createdAt,value
2022-10-23T00:02:12.083Z,14.32
2022-10-23T00:04:39.082Z,14.32
2022-10-23T00:07:05.967Z,14.32
2022-10-23T00:09:32.804Z,14.33
2022-10-23T00:11:59.780Z,14.35
2022-10-23T00:14:26.761Z,14.39
2022-10-23T00:16:53.677Z,14.40
2022-10-23T00:19:20.762Z,14.41
2022-10-23T00:21:47.726Z,14.43
2022-10-23T00:24:14.792Z,14.43
2022-10-23T00:26:42.190Z,14.44
2022-10-23T00:29:09.972Z,14.44
2022-10-23T00:31:37.994Z,14.45
2022-10-23T00:34:07.604Z,14.44
2022-10-23T00:36:35.170Z,14.43
2022-10-23T00:39:02.457Z,14.42
2022-10-23T00:41:31.763Z,14.40
2022-10-23T00:44:04.020Z,14.39
2022-10-23T00:46:31.994Z,14.40
2022-10-23T00:48:59.727Z,14.40
2022-10-23T00:51:31.107Z,14.40
2022-10-23T00:54:06.575Z,14.38
2022-10-23T00:56:43.385Z,14.36
2022-10-23T00:59:11.401Z,14.35
2022-10-23T01:01:38.401Z,14.34
2022-10-23T01:04:06.836Z,14.33
2022-10-23T01:06:44.162Z,14.33
2022-10-23T01:09:11.016Z,14.33
2022-10-23T01:11:52.845Z,14.31
2022-10-23T01:14:57.973Z,14.31
2022-10-23T01:17:49.077Z,14.28
2022-10-23T01:20:35.192Z,14.24
2022-10-23T01:23:16.546Z,14.23
2022-10-23T01:25:59.300Z,14.22
2022-10-23T01:28:35.850Z,14.22
2022-10-23T01:31:08.705Z,14.22
2022-10-23T01:33:42.561Z,14.23
2022-10-23T01:36:15.458Z,14.22
2022-10-23T01:38:52.398Z,14.23
2022-10-23T01:41:28.118Z,14.23
2022-10-23T01:43:57.914Z,14.23
2022-10-23T01:46:25.711Z,14.21
2022-10-23T01:48:54.617Z,14.18
2022-10-23T01:51:26.677Z,14.15
2022-10-23T01:53:59.147Z,14.13
2022-10-23T01:56:30.864Z,14.13
2022-10-23T01:59:02.741Z,14.12
2022-10-23T02:01:32.578Z,14.13
2022-10-23T02:04:03.262Z,14.14
2022-10-23T02:06:30.182Z,14.14
2022-10-23T02:08:57.288Z,14.14
2022-10-23T02:11:24.346Z,14.14
2022-10-23T02:14:15.834Z,14.16
2022-10-23T02:16:54.535Z,14.15
2022-10-23T02:19:46.209Z,14.15
2022-10-23T02:22:22.202Z,14.14
2022-10-23T02:24:53.777Z,14.12
2022-10-23T02:27:31.487Z,14.12
2022-10-23T02:30:05.079Z,14.11
2022-10-23T02:32:34.062Z,14.11
2022-10-23T02:35:01.726Z,14.12
2022-10-23T02:37:28.650Z,14.12
2022-10-23T02:39:55.916Z,14.12
2022-10-23T02:42:38.923Z,14.11
2022-10-23T02:45:11.453Z,14.13
2022-10-23T02:47:41.686Z,14.14
2022-10-23T02:50:20.487Z,14.14
2022-10-23T02:53:03.046Z,14.16
2022-10-23T02:55:48.441Z,14.16
2022-10-23T02:58:21.171Z,14.16
2022-10-23T03:01:10.990Z,14.15
2022-10-23T03:03:42.157Z,14.12
2022-10-23T03:06:09.628Z,14.11
2022-10-23T03:08:45.301Z,14.10
2022-10-23T03:11:12.248Z,14.11
2022-10-23T03:13:39.108Z,14.13
2022-10-23T03:16:06.231Z,14.15
2022-10-23T03:18:33.097Z,14.17
2022-10-23T03:20:59.998Z,14.19
2022-10-23T03:23:27.061Z,14.18
2022-10-23T03:25:55.587Z,14.17
2022-10-23T03:28:22.996Z,14.16
2022-10-23T03:30:49.945Z,14.15
2022-10-23T03:33:16.764Z,14.13
2022-10-23T03:35:43.942Z,14.13
2022-10-23T03:38:10.920Z,14.12
2022-10-23T03:40:37.757Z,14.12
2022-10-23T03:43:04.601Z,14.11
2022-10-23T03:45:32.129Z,14.11
2022-10-23T03:47:59.030Z,14.12
2022-10-23T03:50:25.868Z,14.12
2022-10-23T03:52:52.813Z,14.14
2022-10-23T03:55:19.732Z,14.16
2022-10-23T03:57:46.582Z,14.19
2022-10-23T04:00:13.653Z,14.20
2022-10-23T04:02:40.833Z,14.20
2022-10-23T04:05:08.053Z,14.20
2022-10-23T04:07:35.027Z,14.20
2022-10-23T04:10:01.987Z,14.20
2022-10-23T04:12:29.062Z,14.19
2022-10-23T04:14:55.865Z,14.20
2022-10-23T04:17:22.865Z,14.20
2022-10-23T04:19:49.755Z,14.18
2022-10-23T04:22:16.586Z,14.14
2022-10-23T04:24:46.193Z,14.13
2022-10-23T04:27:13.642Z,14.13
2022-10-23T04:29:40.582Z,14.13
2022-10-23T04:32:07.791Z,14.13
2022-10-23T04:34:34.835Z,14.15
2022-10-23T04:37:01.700Z,14.16
2022-10-23T04:39:28.640Z,14.16
2022-10-23T04:41:55.496Z,14.17
2022-10-23T04:44:22.347Z,14.18
2022-10-23T04:46:49.606Z,14.18
2022-10-23T04:49:16.469Z,14.17
2022-10-23T04:51:43.406Z,14.18
2022-10-23T04:54:10.328Z,14.19
2022-10-23T04:56:37.297Z,14.17
2022-10-23T05:01:36.391Z,14.16
2022-10-23T05:04:03.810Z,14.17
2022-10-23T05:06:30.619Z,14.18
2022-10-23T05:08:57.712Z,14.19
2022-10-23T05:11:24.694Z,14.19
2022-10-23T05:13:51.583Z,14.18
2022-10-23T05:16:42.567Z,14.17
2022-10-23T05:19:12.278Z,14.18
2022-10-23T05:21:40.029Z,14.19
2022-10-23T05:24:07.122Z,14.18
2022-10-23T05:26:33.960Z,14.20
2022-10-23T05:29:00.800Z,14.22
2022-10-23T05:31:28.188Z,14.21
2022-10-23T05:33:56.318Z,14.21
2022-10-23T05:36:24.478Z,14.19
2022-10-23T05:38:51.781Z,14.20
2022-10-23T05:41:18.913Z,14.20
2022-10-23T05:43:45.940Z,14.20
2022-10-23T05:46:12.793Z,14.17
2022-10-23T05:48:39.958Z,14.15
2022-10-23T05:51:09.070Z,14.14
2022-10-23T05:53:38.754Z,14.14
2022-10-23T05:56:09.212Z,14.12
2022-10-23T05:58:36.323Z,14.12
2022-10-23T06:01:08.693Z,14.11
2022-10-23T06:03:37.221Z,14.12
2022-10-23T06:06:05.455Z,14.12
2022-10-23T06:08:33.319Z,14.15
2022-10-23T06:11:14.144Z,14.15
2022-10-23T06:13:45.833Z,14.16
2022-10-23T06:16:14.663Z,14.17
2022-10-23T06:18:42.331Z,14.16
2022-10-23T06:21:09.719Z,14.16
2022-10-23T06:23:38.450Z,14.18
2022-10-23T06:26:07.523Z,14.18
2022-10-23T06:28:34.777Z,14.20
2022-10-23T06:31:13.190Z,14.21
2022-10-23T06:33:40.882Z,14.21
2022-10-23T06:36:09.943Z,14.20
2022-10-23T06:38:39.751Z,14.21
2022-10-23T06:41:12.074Z,14.22
2022-10-23T06:43:39.017Z,14.23
2022-10-23T06:46:06.717Z,14.24
2022-10-23T06:48:33.693Z,14.24
2022-10-23T06:51:08.949Z,14.23
2022-10-23T06:53:36.454Z,14.23
2022-10-23T06:56:05.416Z,14.23
2022-10-23T06:58:34.621Z,14.22
2022-10-23T07:01:03.503Z,14.22
2022-10-23T07:03:31.131Z,14.22
2022-10-23T07:06:02.270Z,14.24
2022-10-23T07:08:29.583Z,14.23
2022-10-23T07:10:56.752Z,14.22
2022-10-23T07:13:24.500Z,14.20
2022-10-23T07:15:51.472Z,14.19
2022-10-23T07:18:19.055Z,14.21
2022-10-23T07:20:50.601Z,14.23
2022-10-23T07:23:17.808Z,14.25
2022-10-23T07:25:44.734Z,14.26
2022-10-23T07:28:11.762Z,14.26
2022-10-23T07:30:40.283Z,14.26
2022-10-23T07:33:10.821Z,14.25
2022-10-23T07:35:40.988Z,14.26
2022-10-23T07:38:07.942Z,14.28
2022-10-23T07:40:34.983Z,14.29
2022-10-23T07:43:01.882Z,14.31
2022-10-23T07:45:28.773Z,14.32
2022-10-23T07:47:58.504Z,14.31
2022-10-23T07:50:25.498Z,14.31
2022-10-23T07:52:52.386Z,14.33
2022-10-23T07:55:25.497Z,14.35
2022-10-23T07:57:52.687Z,14.37
2022-10-23T08:00:19.699Z,14.39
2022-10-23T08:02:46.728Z,14.40
2022-10-23T08:05:13.610Z,14.41
2022-10-23T08:07:40.600Z,14.41
2022-10-23T08:10:08.049Z,14.42
2022-10-23T08:12:37.460Z,14.43
2022-10-23T08:15:04.814Z,14.46
2022-10-23T08:17:31.961Z,14.49
2022-10-23T08:19:59.157Z,14.49
2022-10-23T08:22:26.058Z,14.48
2022-10-23T08:24:53.080Z,14.47
2022-10-23T08:27:19.980Z,14.48
2022-10-23T08:29:46.898Z,14.49
2022-10-23T08:32:13.905Z,14.52
2022-10-23T08:34:41.422Z,14.53
2022-10-23T08:37:09.346Z,14.55
2022-10-23T08:39:36.342Z,14.53
2022-10-23T08:42:03.511Z,14.53
2022-10-23T08:44:45.413Z,14.54
2022-10-23T08:47:22.829Z,14.53
2022-10-23T08:49:59.931Z,14.53
2022-10-23T08:52:29.939Z,14.53
2022-10-23T08:55:23.441Z,14.52
2022-10-23T08:58:00.956Z,14.48
2022-10-23T09:00:28.497Z,14.47
2022-10-23T09:02:55.977Z,14.48
2022-10-23T09:05:48.591Z,14.49
2022-10-23T09:08:41.258Z,14.51
2022-10-23T09:11:23.892Z,14.48
2022-10-23T09:14:27.347Z,14.46
2022-10-23T09:17:25.122Z,14.47
2022-10-23T09:20:25.452Z,14.47
2022-10-23T09:23:07.322Z,14.51
2022-10-23T09:25:39.149Z,14.53
2022-10-23T09:28:07.050Z,14.56
2022-10-23T09:30:38.177Z,14.57
2022-10-23T09:33:27.632Z,14.61
2022-10-23T09:36:06.120Z,14.63
2022-10-23T09:38:46.705Z,14.62
2022-10-23T09:41:22.491Z,14.65
2022-10-23T09:44:08.451Z,14.67
2022-10-23T09:46:44.018Z,14.68
2022-10-23T09:49:24.544Z,14.68
2022-10-23T09:52:17.209Z,14.67
2022-10-23T09:54:49.964Z,14.69
2022-10-23T09:57:37.667Z,14.73
2022-10-23T10:00:17.166Z,14.78
2022-10-23T10:02:56.396Z,14.82
2022-10-23T10:05:31.206Z,14.85
2022-10-23T10:08:04.775Z,14.86
2022-10-23T10:10:52.823Z,14.90
2022-10-23T10:13:34.021Z,14.94
2022-10-23T10:16:14.763Z,14.98
2022-10-23T10:19:02.904Z,14.99
2022-10-23T10:21:35.995Z,15.02
2022-10-23T10:24:12.127Z,15.05
2022-10-23T10:27:09.988Z,15.06
2022-10-23T10:29:50.815Z,15.02
2022-10-23T10:32:35.825Z,15.00
2022-10-23T10:35:18.952Z,15.01
2022-10-23T10:38:14.353Z,15.01
2022-10-23T10:40:51.350Z,15.03
2022-10-23T10:43:44.868Z,15.03
2022-10-23T10:46:25.828Z,15.02
2022-10-23T10:49:19.660Z,15.02
2022-10-23T10:51:57.001Z,15.03
2022-10-23T10:54:39.045Z,15.05
2022-10-23T10:57:26.891Z,15.08
2022-10-23T10:59:56.903Z,15.08
2022-10-23T11:02:45.731Z,15.09
2022-10-23T11:05:33.189Z,15.10
2022-10-23T11:08:57.681Z,15.11
2022-10-23T11:11:43.052Z,15.16
2022-10-23T11:14:22.185Z,15.22
2022-10-23T11:16:59.217Z,15.26
2022-10-23T11:19:33.640Z,15.27
2022-10-23T11:22:15.549Z,15.30
2022-10-23T11:25:05.348Z,15.37
2022-10-23T11:27:48.340Z,15.40
2022-10-23T11:30:21.118Z,15.42
2022-10-23T11:33:15.548Z,15.42
2022-10-23T11:35:53.538Z,15.41
2022-10-23T11:38:38.611Z,15.41
2022-10-23T11:41:27.120Z,15.43
2022-10-23T11:44:05.847Z,15.47
2022-10-23T11:46:36.080Z,15.49
2022-10-23T11:49:05.575Z,15.51
2022-10-23T11:51:35.332Z,15.51
2022-10-23T11:54:21.834Z,15.54
2022-10-23T11:57:10.576Z,15.58
2022-10-23T11:59:46.926Z,15.63
2022-10-23T12:02:41.363Z,15.64
2022-10-23T12:05:29.522Z,15.67
2022-10-23T12:07:59.877Z,15.67
2022-10-23T12:10:31.447Z,15.69
2022-10-23T12:13:00.938Z,15.74
2022-10-23T12:15:34.342Z,15.82
2022-10-23T12:18:15.843Z,15.91
2022-10-23T12:20:57.008Z,15.96
2022-10-23T12:23:36.576Z,15.97
2022-10-23T12:26:09.929Z,15.97
2022-10-23T12:28:45.771Z,15.95
2022-10-23T12:31:50.829Z,15.95
2022-10-23T12:34:47.818Z,15.97
2022-10-23T12:37:26.098Z,16.00
2022-10-23T12:39:55.324Z,16.02
2022-10-23T12:42:25.148Z,16.02
2022-10-23T12:45:02.752Z,16.04
2022-10-23T12:47:30.525Z,16.02
2022-10-23T12:49:57.634Z,16.03
2022-10-23T12:52:26.679Z,16.04
2022-10-23T12:54:53.740Z,16.07
2022-10-23T12:57:27.681Z,16.10
2022-10-23T13:00:05.723Z,16.13
2022-10-23T13:02:40.885Z,16.15
2022-10-23T13:05:16.350Z,16.13
2022-10-23T13:07:46.421Z,16.12
2022-10-23T13:10:26.205Z,16.07
2022-10-23T13:12:58.006Z,16.02
2022-10-23T13:15:26.230Z,16.00
2022-10-23T13:17:53.059Z,15.99
2022-10-23T13:20:27.751Z,15.99
2022-10-23T13:23:30.616Z,15.99
2022-10-23T13:25:59.131Z,15.99
2022-10-23T13:28:27.999Z,15.98
2022-10-23T13:31:05.782Z,15.99
2022-10-23T13:33:41.652Z,16.00
2022-10-23T13:36:14.735Z,16.01
2022-10-23T13:39:02.156Z,16.00
2022-10-23T13:41:36.424Z,16.01
2022-10-23T13:44:04.060Z,15.99
2022-10-23T13:46:31.269Z,15.98
2022-10-23T13:48:58.304Z,15.98
2022-10-23T13:51:28.424Z,15.96
2022-10-23T13:53:57.134Z,15.96
2022-10-23T13:56:26.204Z,15.96
2022-10-23T13:58:53.712Z,15.96
2022-10-23T14:01:25.885Z,15.96
2022-10-23T14:04:15.861Z,15.96
2022-10-23T14:06:43.727Z,15.97
2022-10-23T14:09:16.361Z,15.98
2022-10-23T14:11:44.491Z,15.99
2022-10-23T14:14:13.208Z,16.00
2022-10-23T14:16:44.042Z,16.00
2022-10-23T14:19:12.311Z,15.99
2022-10-23T14:21:39.350Z,15.99
2022-10-23T14:24:06.519Z,16.00
2022-10-23T14:26:34.137Z,16.00
2022-10-23T14:29:08.485Z,16.01
2022-10-23T14:31:38.549Z,16.01
2022-10-23T14:34:05.499Z,15.99
2022-10-23T14:36:49.454Z,15.99
2022-10-23T14:39:17.482Z,15.99
2022-10-23T14:41:45.343Z,16.00
2022-10-23T14:44:12.585Z,16.01
2022-10-23T14:46:39.622Z,16.01
2022-10-23T14:49:06.838Z,16.00
2022-10-23T14:51:34.074Z,15.98
2022-10-23T14:54:06.615Z,15.98
2022-10-23T14:56:39.488Z,15.96
2022-10-23T14:59:10.625Z,15.96
2022-10-23T15:01:43.745Z,15.95
2022-10-23T15:04:15.186Z,15.92
2022-10-23T15:06:43.378Z,15.89
2022-10-23T15:09:10.827Z,15.85
2022-10-23T15:11:38.031Z,15.80
2022-10-23T15:14:05.665Z,15.79
2022-10-23T15:16:33.207Z,15.77
2022-10-23T15:19:00.653Z,15.75
2022-10-23T15:21:40.929Z,15.70
2022-10-23T15:24:08.032Z,15.65
2022-10-23T15:26:37.763Z,15.61
2022-10-23T15:29:06.423Z,15.57
2022-10-23T15:32:08.717Z,15.53
2022-10-23T15:34:37.262Z,15.49
2022-10-23T15:37:04.800Z,15.47
2022-10-23T15:39:34.514Z,15.44
2022-10-23T15:42:53.086Z,15.40
2022-10-23T15:45:37.459Z,15.32
2022-10-23T15:48:04.963Z,15.28
2022-10-23T15:50:35.256Z,15.25
2022-10-23T15:56:30.644Z,15.17
2022-10-23T15:59:17.996Z,15.13
2022-10-23T16:02:53.292Z,15.08
2022-10-23T16:05:20.538Z,15.04
2022-10-23T16:07:50.059Z,14.99
2022-10-23T16:10:17.836Z,14.99
2022-10-23T16:12:46.748Z,14.94
2022-10-23T16:15:13.956Z,14.91
2022-10-23T16:21:01.579Z,14.89
2022-10-23T16:23:28.890Z,14.88
2022-10-23T16:26:01.918Z,14.87
2022-10-23T16:28:38.208Z,14.87
2022-10-23T16:31:36.847Z,14.87
2022-10-23T16:34:07.840Z,14.84
2022-10-23T16:41:11.063Z,14.77
2022-10-23T16:43:39.424Z,14.76
2022-10-23T16:46:10.302Z,14.75
2022-10-23T16:48:41.553Z,14.75
2022-10-23T16:51:15.046Z,14.72
2022-10-23T16:53:43.063Z,14.68
2022-10-23T16:56:15.705Z,14.66
2022-10-23T16:58:43.432Z,14.60
2022-10-23T17:01:14.200Z,14.64
2022-10-23T17:03:44.165Z,14.65
2022-10-23T17:06:18.901Z,14.63
2022-10-23T17:08:58.002Z,14.61
2022-10-23T17:11:31.811Z,14.58
2022-10-23T17:14:03.068Z,14.54
2022-10-23T17:16:38.109Z,14.54
2022-10-23T17:19:44.958Z,14.54
2022-10-23T17:22:25.032Z,14.50
2022-10-23T17:24:54.830Z,14.51
2022-10-23T17:27:21.799Z,14.51
2022-10-23T17:29:48.794Z,14.52
2022-10-23T17:32:18.407Z,14.51
2022-10-23T17:34:48.134Z,14.49
2022-10-23T17:37:16.682Z,14.48
2022-10-23T17:39:52.330Z,14.45
2022-10-23T17:42:19.870Z,14.47
2022-10-23T17:44:47.240Z,14.47
2022-10-23T17:47:14.127Z,14.46
2022-10-23T17:49:42.879Z,14.46
2022-10-23T17:52:14.488Z,14.45
2022-10-23T17:54:41.776Z,14.44
2022-10-23T17:57:08.973Z,14.45
2022-10-23T17:59:37.078Z,14.46
2022-10-23T18:02:04.846Z,14.45
2022-10-23T18:04:36.007Z,14.44
2022-10-23T18:07:03.204Z,14.43
2022-10-23T18:09:33.669Z,14.42
2022-10-23T18:12:02.124Z,14.43
2022-10-23T18:14:29.716Z,14.45
2022-10-23T18:17:00.060Z,14.47
2022-10-23T18:20:04.196Z,14.47
2022-10-23T18:22:41.249Z,14.45
2022-10-23T18:25:19.152Z,14.42
2022-10-23T18:27:53.154Z,14.40
2022-10-23T18:30:20.221Z,14.39
2022-10-23T18:32:47.961Z,14.39
2022-10-23T18:35:16.011Z,14.40
2022-10-23T18:37:43.070Z,14.40
2022-10-23T18:40:12.244Z,14.39
2022-10-23T18:42:39.268Z,14.37
2022-10-23T18:45:06.857Z,14.36
2022-10-23T18:47:36.689Z,14.35
2022-10-23T18:50:08.347Z,14.35
2022-10-23T18:52:41.801Z,14.36
2022-10-23T18:55:12.603Z,14.36
2022-10-23T18:57:40.801Z,14.37
2022-10-23T19:00:10.491Z,14.35
2022-10-23T19:02:38.606Z,14.34
2022-10-23T19:05:13.591Z,14.33
2022-10-23T19:07:48.451Z,14.34
2022-10-23T19:10:46.025Z,14.32
2022-10-23T19:13:22.505Z,14.36
2022-10-23T19:15:49.623Z,14.34
2022-10-23T19:18:16.974Z,14.33
2022-10-23T19:20:44.232Z,14.33
2022-10-23T19:23:15.294Z,14.33
2022-10-23T19:25:45.044Z,14.33
2022-10-23T19:31:57.736Z,14.35
2022-10-23T19:34:25.094Z,14.33
2022-10-23T19:37:01.554Z,14.31
2022-10-23T19:39:29.155Z,14.30
2022-10-23T19:41:57.161Z,14.29
2022-10-23T19:44:24.738Z,14.30
2022-10-23T19:46:51.975Z,14.30
2022-10-23T19:49:19.380Z,14.30
2022-10-23T19:52:10.751Z,14.28
2022-10-23T19:54:40.776Z,14.25
2022-10-23T19:57:35.302Z,14.22
2022-10-23T20:01:03.144Z,14.19
2022-10-23T20:06:35.179Z,14.18
2022-10-23T20:09:07.479Z,14.20
2022-10-23T20:11:36.656Z,14.20
2022-10-23T20:14:03.921Z,14.19
2022-10-23T20:16:33.412Z,14.17
2022-10-23T20:19:10.102Z,14.15
2022-10-23T20:21:46.378Z,14.15
2022-10-23T20:24:24.555Z,14.15
2022-10-23T20:26:54.269Z,14.15
2022-10-23T20:29:22.656Z,14.16
2022-10-23T20:31:50.174Z,14.15
2022-10-23T20:34:18.635Z,14.13
2022-10-23T20:36:49.451Z,14.12
2022-10-23T20:39:35.247Z,14.13
2022-10-23T20:42:07.411Z,14.15
2022-10-23T20:44:53.883Z,14.16
2022-10-23T20:47:25.426Z,14.14
2022-10-23T20:50:09.095Z,14.14
2022-10-23T20:52:36.455Z,14.12
2022-10-23T20:55:04.276Z,14.11
2022-10-23T20:57:34.508Z,14.12
2022-10-23T21:00:02.648Z,14.13
2022-10-23T21:02:34.899Z,14.14
2022-10-23T21:05:38.255Z,14.13
2022-10-23T21:08:06.033Z,14.13
2022-10-23T21:10:38.300Z,14.13
2022-10-23T21:13:07.708Z,14.14
2022-10-23T21:15:34.971Z,14.15
2022-10-23T21:18:27.534Z,14.16
2022-10-23T21:21:38.079Z,14.17
2022-10-23T21:24:16.277Z,14.17
2022-10-23T21:26:46.968Z,14.14
2022-10-23T21:29:21.281Z,14.13
2022-10-23T21:32:00.991Z,14.13
2022-10-23T21:34:29.330Z,14.11
2022-10-23T21:37:13.591Z,14.12
2022-10-23T21:39:42.757Z,14.10
2022-10-23T21:42:11.529Z,14.10
2022-10-23T21:44:38.457Z,14.09
2022-10-23T21:47:05.378Z,14.08
2022-10-23T21:49:32.324Z,14.08
2022-10-23T21:52:00.201Z,14.10
2022-10-23T21:54:27.151Z,14.11
2022-10-23T21:56:54.317Z,14.12
2022-10-23T21:59:23.953Z,14.10
2022-10-23T22:01:56.813Z,14.08
2022-10-23T22:04:27.057Z,14.05
2022-10-23T22:06:54.010Z,14.03
2022-10-23T22:09:22.275Z,14.01
2022-10-23T22:11:50.647Z,14.00
2022-10-23T22:14:18.521Z,14.00
2022-10-23T22:16:45.867Z,13.99
2022-10-23T22:19:15.073Z,13.96
2022-10-23T22:21:42.624Z,13.94
2022-10-23T22:24:10.332Z,13.94
2022-10-23T22:26:43.353Z,13.94
2022-10-23T22:29:13.121Z,13.97
2022-10-23T22:31:43.071Z,13.98
2022-10-23T22:34:25.338Z,13.99
2022-10-23T22:37:01.030Z,13.96
2022-10-23T22:39:28.012Z,13.95
2022-10-23T22:41:54.984Z,13.93
2022-10-23T22:44:21.843Z,13.92
2022-10-23T22:46:48.804Z,13.91
2022-10-23T22:49:16.012Z,13.92
2022-10-23T22:51:42.853Z,13.91
2022-10-23T22:54:09.763Z,13.92
2022-10-23T22:56:36.849Z,13.90
2022-10-23T22:59:04.548Z,13.88
2022-10-23T23:01:38.074Z,13.89
2022-10-23T23:04:13.965Z,13.90
2022-10-23T23:06:52.302Z,13.90
2022-10-23T23:09:20.029Z,13.89
2022-10-23T23:11:52.074Z,13.87
2022-10-23T23:14:23.382Z,13.85
2022-10-23T23:16:52.608Z,13.84
2022-10-23T23:19:21.957Z,13.83
2022-10-23T23:21:49.043Z,13.84
2022-10-23T23:24:15.909Z,13.84
2022-10-23T23:26:42.794Z,13.85
2022-10-23T23:29:09.777Z,13.84
2022-10-23T23:31:36.679Z,13.82
2022-10-23T23:34:03.889Z,13.81
2022-10-23T23:36:30.826Z,13.79
2022-10-23T23:38:58.308Z,13.79
2022-10-23T23:41:27.064Z,13.78
2022-10-23T23:43:56.462Z,13.78
2022-10-23T23:46:24.198Z,13.77
2022-10-23T23:48:51.132Z,13.74
2022-10-23T23:51:21.653Z,13.74
2022-10-23T23:53:49.175Z,13.74
2022-10-23T23:56:16.776Z,13.76
2022-10-23T23:58:44.273Z,13.75
